Time;durP1;ratioP1;P1;durP2;ratioP2;P2;SDS_P1;SDS_P2;PMS_P1;PMS_P2;Temp;Humidity;BMP_temperature;BMP_pressure;BME280_temperature;BME280_humidity;BME280_pressure;Samples;Min_cycle;Max_cycle;Signal;HPM_P1;HPM_P2
2022/09/16 00:01:15;;;;;;;7.67;5.13;;;;;;;;;;10974263;23;20061;-83
2022/09/16 00:06:18;;;;;;;6.88;5.22;;;;;;;;;;10622487;23;20042;-84
2022/09/16 00:32:55;;;;;;;;;;;;;;;;;;11256920;23;20050;-84
2022/09/16 00:38:00;;;;;;;7.00;4.65;;;;;;;;;;11970824;23;19909;-81
2022/09/16 00:48:24;;;;;;;5.70;4.30;;;;;;;;;;11087880;23;20045;-81
2022/09/16 00:53:30;;;;;;;5.70;4.10;;;;;;;;;;11009141;23;20031;-80
2022/09/16 00:58:49;;;;;;;5.88;4.97;;;;;;;;;;10455992;23;20035;-82
2022/09/16 01:03:53;;;;;;;6.80;5.00;;;;;;;;;;10456040;23;20037;-83
2022/09/16 01:08:56;;;;;;;5.10;4.60;;;;;;;;;;10987667;23;20057;-88
2022/09/16 01:14:51;;;;;;;4.78;4.35;;;;;;;;;;10404629;28;20072;-84
2022/09/16 01:24:28;;;;;;;6.50;4.80;;;;;;;;;;11968518;23;20323;-82
2022/09/16 01:29:39;;;;;;;5.80;4.68;;;;;;;;;;10672840;23;20036;-83
2022/09/16 01:35:01;;;;;;;8.20;5.07;;;;;;;;;;10375149;28;20038;-83
2022/09/16 01:40:14;;;;;;;6.65;4.55;;;;;;;;;;10372052;28;20054;-84
2022/09/16 01:45:15;;;;;;;6.57;4.75;;;;;;;;;;10369555;28;20035;-85
2022/09/16 01:50:23;;;;;;;4.90;4.38;;;;;;;;;;10676300;23;20035;-84
2022/09/16 01:55:49;;;;;;;7.07;4.32;;;;;;;;;;10356155;28;20030;-84
2022/09/16 02:00:58;;;;;;;5.93;4.50;;;;;;;;;;10362664;28;20050;-83
2022/09/16 02:06:01;;;;;;;6.13;4.60;;;;;;;;;;10354272;28;20047;-81
2022/09/16 02:11:04;;;;;;;5.72;4.50;;;;;;;;;;10357763;28;20056;-82
2022/09/16 02:16:07;;;;;;;7.15;4.50;;;;;;;;;;10329230;28;20043;-83
2022/09/16 02:21:10;;;;;;;5.05;3.83;;;;;;;;;;10357049;28;20054;-83
2022/09/16 02:26:11;;;;;;;6.80;4.45;;;;;;;;;;10343080;28;20042;-83
2022/09/16 02:31:14;;;;;;;7.13;4.40;;;;;;;;;;10771575;23;20115;-85
2022/09/16 02:36:19;;;;;;;6.90;4.10;;;;;;;;;;10803787;23;20038;-86
2022/09/16 03:02:55;;;;;;;4.95;3.55;;;;;;;;;;11425442;23;19906;-86
2022/09/16 03:13:26;;;;;;;5.20;4.03;;;;;;;;;;11135492;23;20046;-84
2022/09/16 03:18:47;;;;;;;5.38;4.50;;;;;;;;;;10427641;23;20092;-86
2022/09/16 03:24:16;;;;;;;7.32;4.35;;;;;;;;;;10377599;28;20034;-87
2022/09/16 03:35:04;;;;;;;5.68;4.63;;;;;;;;;;10545111;23;20042;-80
2022/09/16 03:45:29;;;;;;;4.57;3.90;;;;;;;;;;10451278;23;20038;-85
2022/09/16 03:50:29;;;;;;;5.85;4.72;;;;;;;;;;10403337;28;20033;-81
2022/09/16 03:55:31;;;;;;;5.43;4.10;;;;;;;;;;10659460;23;20040;-81
2022/09/16 04:00:31;;;;;;;6.43;4.50;;;;;;;;;;10400752;28;20026;-83
2022/09/16 04:05:33;;;;;;;6.40;4.07;;;;;;;;;;10572173;23;20049;-85
2022/09/16 04:10:33;;;;;;;6.57;4.55;;;;;;;;;;10368873;28;20030;-84
2022/09/16 04:15:37;;;;;;;4.90;4.03;;;;;;;;;;10382061;28;20033;-82
2022/09/16 04:20:37;;;;;;;6.53;4.37;;;;;;;;;;10373207;28;20038;-89
2022/09/16 04:25:40;;;;;;;5.68;4.32;;;;;;;;;;10476848;23;20062;-86
2022/09/16 04:36:13;;;;;;;6.13;4.57;;;;;;;;;;10496283;23;20066;-87
2022/09/16 04:41:20;;;;;;;7.43;4.90;;;;;;;;;;10310522;28;20127;-80
2022/09/16 04:46:20;;;;;;;7.72;4.85;;;;;;;;;;10320852;28;20023;-78
2022/09/16 04:51:21;;;;;;;6.00;4.32;;;;;;;;;;10310519;28;20031;-78
2022/09/16 04:56:23;;;;;;;6.63;4.32;;;;;;;;;;10320295;28;20066;-79
2022/09/16 05:01:26;;;;;;;7.07;4.68;;;;;;;;;;10310282;28;20162;-80
2022/09/16 05:06:27;;;;;;;8.70;4.50;;;;;;;;;;10329076;28;20466;-80
2022/09/16 05:11:29;;;;;;;6.78;4.50;;;;;;;;;;10309168;28;20038;-73
2022/09/16 05:16:30;;;;;;;5.72;4.35;;;;;;;;;;10300492;28;20058;-78
2022/09/16 05:21:31;;;;;;;6.63;5.25;;;;;;;;;;10310309;28;20133;-73
2022/09/16 05:26:34;;;;;;;6.15;4.60;;;;;;;;;;10317585;28;20058;-72
2022/09/16 05:31:35;;;;;;;8.83;5.70;;;;;;;;;;10362276;28;20058;-79
2022/09/16 05:36:38;;;;;;;6.25;4.25;;;;;;;;;;10373728;28;20018;-78
2022/09/16 05:41:39;;;;;;;;;;;;;;;;;;10342566;28;20050;-81
2022/09/16 05:46:40;;;;;;;5.32;3.88;;;;;;;;;;10345899;28;19918;-81
2022/09/16 05:51:40;;;;;;;6.63;3.58;;;;;;;;;;10355455;28;20057;-80
2022/09/16 05:56:41;;;;;;;9.45;5.47;;;;;;;;;;10363229;28;20141;-79
2022/09/16 06:01:42;;;;;;;8.17;3.90;;;;;;;;;;10327699;28;20051;-77
2022/09/16 06:06:43;;;;;;;4.10;3.70;;;;;;;;;;10308637;28;20027;-75
2022/09/16 06:11:48;;;;;;;6.45;3.25;;;;;;;;;;10326970;28;20118;-76
2022/09/16 06:16:49;;;;;;;7.85;3.30;;;;;;;;;;10330548;28;20402;-75
2022/09/16 06:21:49;;;;;;;5.00;3.22;;;;;;;;;;10321565;28;20038;-76
2022/09/16 06:26:51;;;;;;;4.37;2.70;;;;;;;;;;10313541;28;20130;-75
2022/09/16 06:31:52;;;;;;;4.30;2.80;;;;;;;;;;10331733;28;20294;-75
2022/09/16 06:36:53;;;;;;;5.30;2.80;;;;;;;;;;10326987;28;20073;-76
2022/09/16 06:41:54;;;;;;;5.15;3.15;;;;;;;;;;10318327;28;20055;-77
2022/09/16 06:47:03;;;;;;;6.00;3.00;;;;;;;;;;10316296;28;20050;-76
2022/09/16 06:52:03;;;;;;;18.00;11.75;;;;;;;;;;10349479;28;20057;-76
2022/09/16 06:57:03;;;;;;;5.83;2.80;;;;;;;;;;10316242;28;20399;-77
2022/09/16 07:02:04;;;;;;;4.03;2.80;;;;;;;;;;10334748;28;20294;-76
2022/09/16 07:07:05;;;;;;;5.90;3.00;;;;;;;;;;10348403;28;20156;-78
2022/09/16 07:12:06;;;;;;;6.22;2.65;;;;;;;;;;10354944;28;20269;-79
2022/09/16 07:17:07;;;;;;;6.00;2.50;;;;;;;;;;10355855;28;20042;-77
2022/09/16 07:22:10;;;;;;;4.20;2.15;;;;;;;;;;10307489;28;20194;-77
2022/09/16 07:27:10;;;;;;;5.03;2.33;;;;;;;;;;10315290;28;20030;-77
2022/09/16 07:32:11;;;;;;;5.03;2.38;;;;;;;;;;10304604;28;20173;-79
2022/09/16 07:37:12;;;;;;;3.88;2.70;;;;;;;;;;10323908;28;20116;-79
2022/09/16 07:42:12;;;;;;;4.03;2.05;;;;;;;;;;10330869;28;20165;-83
2022/09/16 07:47:13;;;;;;;3.23;2.07;;;;;;;;;;10339376;28;20034;-81
2022/09/16 07:52:15;;;;;;;5.30;2.27;;;;;;;;;;10335478;28;20035;-81
2022/09/16 07:57:17;;;;;;;4.75;2.38;;;;;;;;;;10332960;28;20297;-83
2022/09/16 08:02:17;;;;;;;2.67;1.80;;;;;;;;;;10341313;28;21214;-81
2022/09/16 08:07:19;;;;;;;3.17;1.90;;;;;;;;;;10326155;28;20043;-81
2022/09/16 08:12:19;;;;;;;2.00;1.77;;;;;;;;;;10325637;28;20841;-81
2022/09/16 08:17:20;;;;;;;3.00;1.80;;;;;;;;;;10319183;28;20145;-80
2022/09/16 08:22:22;;;;;;;4.23;2.00;;;;;;;;;;10320773;28;20435;-79
2022/09/16 08:27:22;;;;;;;4.80;1.70;;;;;;;;;;10301025;28;20269;-79
2022/09/16 08:32:23;;;;;;;1.90;1.50;;;;;;;;;;10317960;28;20420;-81
2022/09/16 08:37:23;;;;;;;2.90;1.70;;;;;;;;;;10306233;28;20034;-79
2022/09/16 08:42:28;;;;;;;4.57;2.17;;;;;;;;;;10309022;28;20058;-80
2022/09/16 08:47:47;;;;;;;4.03;2.15;;;;;;;;;;10308136;28;20046;-79
2022/09/16 08:52:47;;;;;;;3.00;1.98;;;;;;;;;;10305115;28;20042;-78
2022/09/16 08:57:57;;;;;;;7.32;5.20;;;;;;;;;;10314473;28;20347;-82
2022/09/16 09:03:13;;;;;;;3.58;1.98;;;;;;;;;;10330355;28;20054;-82
2022/09/16 09:08:28;;;;;;;4.35;1.65;;;;;;;;;;10331479;28;20034;-83
2022/09/16 09:13:39;;;;;;;3.90;1.90;;;;;;;;;;10345117;28;20085;-83
2022/09/16 09:18:42;;;;;;;2.88;1.75;;;;;;;;;;10341988;28;20034;-83
2022/09/16 09:23:42;;;;;;;;;;;;;;;;;;10331540;28;20106;-82
2022/09/16 09:28:52;;;;;;;4.30;1.90;;;;;;;;;;10326637;28;20253;-81
2022/09/16 09:34:00;;;;;;;6.57;2.03;;;;;;;;;;10332444;28;20054;-81
2022/09/16 09:39:02;;;;;;;6.28;2.08;;;;;;;;;;10333713;28;20039;-82
2022/09/16 09:44:08;;;;;;;13.13;7.72;;;;;;;;;;10332350;28;20043;-80
2022/09/16 09:49:12;;;;;;;2.38;1.85;;;;;;;;;;10320088;28;20117;-82
2022/09/16 09:54:22;;;;;;;2.28;1.90;;;;;;;;;;10332834;28;20070;-83
2022/09/16 09:59:25;;;;;;;3.20;1.90;;;;;;;;;;10320879;28;20039;-84
2022/09/16 10:04:26;;;;;;;4.90;2.25;;;;;;;;;;10328682;28;20062;-84
2022/09/16 10:09:27;;;;;;;4.43;1.88;;;;;;;;;;10331845;28;20042;-82
2022/09/16 10:14:35;;;;;;;5.18;3.67;;;;;;;;;;10334244;28;20057;-81
2022/09/16 10:19:56;;;;;;;3.50;1.70;;;;;;;;;;10348209;28;20088;-81
2022/09/16 10:25:00;;;;;;;3.70;1.90;;;;;;;;;;10357265;28;20081;-80
2022/09/16 10:30:06;;;;;;;2.90;1.95;;;;;;;;;;10357389;28;20031;-78
2022/09/16 10:35:07;;;;;;;3.85;1.70;;;;;;;;;;10329683;28;20046;-80
2022/09/16 10:40:14;;;;;;;4.20;1.90;;;;;;;;;;10318576;28;20450;-79
2022/09/16 10:45:17;;;;;;;5.00;1.98;;;;;;;;;;10340823;28;20033;-85
2022/09/16 10:50:20;;;;;;;4.43;2.45;;;;;;;;;;10325380;28;20015;-83
2022/09/16 10:55:23;;;;;;;4.95;1.83;;;;;;;;;;10329492;28;20023;-81
2022/09/16 11:00:30;;;;;;;2.88;2.25;;;;;;;;;;10334762;28;20046;-85
2022/09/16 11:05:57;;;;;;;2.63;1.92;;;;;;;;;;10317350;28;20118;-84
2022/09/16 11:10:57;;;;;;;2.83;1.88;;;;;;;;;;10309108;28;20046;-81
2022/09/16 11:16:13;;;;;;;3.53;2.60;;;;;;;;;;10325783;28;20130;-86
2022/09/16 11:21:16;;;;;;;5.10;3.00;;;;;;;;;;10362662;28;20043;-85
2022/09/16 11:26:35;;;;;;;7.35;2.35;;;;;;;;;;10349492;28;20042;-85
2022/09/16 11:31:46;;;;;;;3.40;2.28;;;;;;;;;;10336229;28;20061;-86
2022/09/16 11:37:11;;;;;;;2.95;2.50;;;;;;;;;;10356619;28;20065;-82
2022/09/16 11:42:28;;;;;;;4.55;2.58;;;;;;;;;;10324553;28;20145;-86
2022/09/16 11:47:51;;;;;;;4.07;2.45;;;;;;;;;;10341101;28;20102;-86
2022/09/16 11:53:11;;;;;;;3.30;2.35;;;;;;;;;;10318866;28;20050;-84
2022/09/16 11:58:31;;;;;;;4.78;2.92;;;;;;;;;;10325553;28;20043;-86
2022/09/16 12:03:54;;;;;;;6.10;3.35;;;;;;;;;;10333630;28;20112;-84
2022/09/16 12:09:04;;;;;;;6.83;2.90;;;;;;;;;;10335441;28;20074;-83
2022/09/16 12:14:23;;;;;;;3.03;2.50;;;;;;;;;;10336556;28;20226;-87
2022/09/16 12:19:26;;;;;;;4.22;2.63;;;;;;;;;;10331594;28;20409;-84
2022/09/16 12:24:41;;;;;;;4.63;2.60;;;;;;;;;;10333454;28;20125;-83
2022/09/16 12:29:55;;;;;;;3.10;2.60;;;;;;;;;;10317228;28;20048;-83
2022/09/16 12:34:55;;;;;;;;;;;;;;;;;;10340497;28;20471;-85
2022/09/16 12:39:58;;;;;;;2.92;2.55;;;;;;;;;;10335444;28;19966;-85
2022/09/16 12:45:05;;;;;;;4.80;2.75;;;;;;;;;;10345333;28;20062;-87
2022/09/16 12:50:18;;;;;;;4.68;3.00;;;;;;;;;;10627544;23;20065;-84
2022/09/16 12:55:28;;;;;;;4.43;2.40;;;;;;;;;;10368311;28;20037;-85
2022/09/16 13:00:35;;;;;;;4.75;2.80;;;;;;;;;;10385920;28;20050;-83
2022/09/16 13:05:36;;;;;;;3.65;2.45;;;;;;;;;;10382206;28;20029;-82
2022/09/16 13:10:38;;;;;;;4.97;3.47;;;;;;;;;;10374472;28;20026;-86
2022/09/16 13:15:39;;;;;;;7.40;5.18;;;;;;;;;;10359605;28;20031;-87
2022/09/16 13:20:40;;;;;;;7.47;4.45;;;;;;;;;;10368874;28;20042;-86
2022/09/16 13:25:49;;;;;;;6.10;3.97;;;;;;;;;;10384986;28;20093;-86
2022/09/16 13:30:51;;;;;;;5.85;4.70;;;;;;;;;;10400397;28;20025;-84
2022/09/16 13:36:11;;;;;;;4.97;3.78;;;;;;;;;;10406671;28;20029;-81
2022/09/16 13:41:13;;;;;;;7.95;4.40;;;;;;;;;;10401898;28;20444;-85
2022/09/16 13:46:24;;;;;;;5.68;3.85;;;;;;;;;;10385077;28;20046;-84
2022/09/16 13:51:26;;;;;;;5.90;3.70;;;;;;;;;;10376702;28;20037;-84
2022/09/16 13:56:26;;;;;;;5.50;3.75;;;;;;;;;;10383389;28;20053;-82
2022/09/16 14:01:33;;;;;;;5.13;3.20;;;;;;;;;;10394425;28;20014;-86
2022/09/16 14:06:43;;;;;;;6.85;2.72;;;;;;;;;;10397342;28;20034;-85
2022/09/16 14:12:20;;;;;;;3.85;2.67;;;;;;;;;;10401876;28;20018;-87
2022/09/16 14:17:31;;;;;;;5.30;2.72;;;;;;;;;;10519051;23;20042;-83
2022/09/16 14:22:33;;;;;;;7.65;5.70;;;;;;;;;;10357931;28;20046;-81
2022/09/16 14:27:42;;;;;;;4.28;2.70;;;;;;;;;;10353660;28;20051;-82
2022/09/16 14:32:43;;;;;;;4.50;2.88;;;;;;;;;;10561941;23;20057;-82
2022/09/16 14:37:45;;;;;;;3.55;2.42;;;;;;;;;;10831621;23;20061;-81
2022/09/16 14:42:51;;;;;;;7.55;2.75;;;;;;;;;;10388332;28;20117;-84
2022/09/16 14:47:52;;;;;;;4.70;2.92;;;;;;;;;;10383067;28;20019;-81
2022/09/16 14:57:57;;;;;;;4.47;2.20;;;;;;;;;;10591526;23;20046;-83
2022/09/16 15:03:00;;;;;;;4.75;2.60;;;;;;;;;;10369529;28;20137;-81
2022/09/16 15:08:19;;;;;;;3.72;2.40;;;;;;;;;;10383968;28;20041;-82
2022/09/16 15:13:23;;;;;;;4.13;2.20;;;;;;;;;;10387810;28;20057;-80
2022/09/16 15:18:28;;;;;;;6.10;3.20;;;;;;;;;;10351990;28;20038;-81
2022/09/16 15:23:31;;;;;;;4.65;3.08;;;;;;;;;;10374594;28;20053;-78
2022/09/16 15:28:33;;;;;;;3.05;1.88;;;;;;;;;;10384315;28;20072;-79
2022/09/16 15:33:34;;;;;;;4.80;3.00;;;;;;;;;;10382354;28;20045;-81
2022/09/16 15:38:35;;;;;;;18.40;13.35;;;;;;;;;;10422308;28;20298;-80
2022/09/16 15:43:40;;;;;;;4.30;2.57;;;;;;;;;;10419504;28;20446;-80
2022/09/16 15:48:45;;;;;;;2.45;1.50;;;;;;;;;;10415786;28;20750;-81
2022/09/16 15:53:46;;;;;;;2.85;1.60;;;;;;;;;;10421858;28;20042;-81
2022/09/16 15:58:48;;;;;;;1.70;1.60;;;;;;;;;;10427324;28;20448;-83
2022/09/16 16:03:48;;;;;;;3.92;2.28;;;;;;;;;;10407896;28;20045;-80
2022/09/16 16:08:50;;;;;;;5.43;2.10;;;;;;;;;;10424865;28;20034;-82
2022/09/16 16:13:50;;;;;;;2.70;1.30;;;;;;;;;;10425881;28;20416;-82
2022/09/16 16:18:51;;;;;;;6.50;2.07;;;;;;;;;;10430465;28;20030;-86
2022/09/16 16:23:51;;;;;;;4.82;2.58;;;;;;;;;;10575895;23;20335;-88
2022/09/16 16:28:51;;;;;;;5.07;3.00;;;;;;;;;;10378579;28;20034;-84
2022/09/16 16:33:53;;;;;;;4.07;2.20;;;;;;;;;;10384398;28;20277;-85
2022/09/16 16:38:54;;;;;;;6.78;4.57;;;;;;;;;;10384039;28;20045;-80
2022/09/16 16:43:56;;;;;;;2.83;2.10;;;;;;;;;;10374395;28;20033;-77
2022/09/16 16:48:56;;;;;;;3.43;1.90;;;;;;;;;;10397150;28;20026;-80
2022/09/16 16:53:57;;;;;;;3.30;1.80;;;;;;;;;;10404950;28;20057;-79
2022/09/16 16:58:57;;;;;;;4.22;1.88;;;;;;;;;;10406344;28;20085;-80
2022/09/16 17:03:59;;;;;;;2.63;1.63;;;;;;;;;;10394621;28;20057;-82
2022/09/16 17:09:00;;;;;;;2.55;1.80;;;;;;;;;;10385415;28;20680;-80
2022/09/16 17:14:02;;;;;;;2.58;1.60;;;;;;;;;;10366341;28;20058;-81
2022/09/16 17:19:03;;;;;;;3.05;1.73;;;;;;;;;;10388639;28;20085;-87
2022/09/16 17:24:03;;;;;;;2.88;1.50;;;;;;;;;;10393793;28;20045;-85
2022/09/16 17:29:04;;;;;;;4.32;1.75;;;;;;;;;;10371565;28;20053;-81
2022/09/16 17:34:08;;;;;;;2.72;1.52;;;;;;;;;;10371315;28;20097;-84
2022/09/16 17:39:19;;;;;;;2.25;1.70;;;;;;;;;;10372666;28;20042;-81
2022/09/16 17:44:22;;;;;;;2.85;1.55;;;;;;;;;;11054303;23;20090;-85
2022/09/16 17:49:36;;;;;;;2.15;1.70;;;;;;;;;;10356156;28;20042;-82
2022/09/16 17:54:36;;;;;;;4.50;2.17;;;;;;;;;;10360443;28;20523;-85
2022/09/16 17:59:37;;;;;;;2.00;1.50;;;;;;;;;;10361535;28;20026;-85
2022/09/16 18:04:46;;;;;;;2.63;1.77;;;;;;;;;;10365738;28;20042;-84
2022/09/16 18:09:47;;;;;;;2.15;1.80;;;;;;;;;;10374709;28;20069;-84
2022/09/16 18:14:47;;;;;;;3.47;2.00;;;;;;;;;;10368022;28;20098;-84
2022/09/16 18:19:48;;;;;;;3.23;1.90;;;;;;;;;;10389040;23;20049;-70
2022/09/16 18:24:49;;;;;;;2.63;1.60;;;;;;;;;;10375973;28;20301;-82
2022/09/16 18:29:49;;;;;;;2.33;1.73;;;;;;;;;;10349540;28;20835;-82
2022/09/16 18:34:50;;;;;;;1.83;1.70;;;;;;;;;;10339152;28;20093;-80
2022/09/16 18:39:51;;;;;;;2.20;1.88;;;;;;;;;;10370812;28;20281;-81
2022/09/16 18:44:52;;;;;;;3.03;2.00;;;;;;;;;;10372432;28;20053;-79
2022/09/16 18:49:53;;;;;;;5.03;2.83;;;;;;;;;;10376904;28;20036;-81
2022/09/16 18:54:55;;;;;;;3.95;2.63;;;;;;;;;;10377360;28;20641;-82
2022/09/16 19:00:27;;;;;;;4.72;2.00;;;;;;;;;;10379519;28;20041;-82
2022/09/16 19:05:59;;;;;;;3.55;2.60;;;;;;;;;;10392107;28;20121;-82
2022/09/16 19:11:32;;;;;;;3.92;2.17;;;;;;;;;;10394217;28;20046;-83
2022/09/16 19:16:33;;;;;;;3.25;2.35;;;;;;;;;;10385447;28;20518;-85
2022/09/16 19:21:34;;;;;;;3.67;2.65;;;;;;;;;;10390847;28;20042;-79
2022/09/16 19:26:36;;;;;;;3.42;2.30;;;;;;;;;;10552245;23;20046;-81
2022/09/16 19:31:38;;;;;;;2.50;2.30;;;;;;;;;;10402466;28;20038;-84
2022/09/16 19:36:38;;;;;;;3.25;2.30;;;;;;;;;;10369339;28;20030;-82
2022/09/16 19:41:41;;;;;;;3.28;2.25;;;;;;;;;;10355926;28;20073;-81
2022/09/16 19:46:43;;;;;;;2.90;2.35;;;;;;;;;;10348102;28;20030;-83
2022/09/16 19:51:44;;;;;;;3.67;2.20;;;;;;;;;;10350100;28;20034;-82
2022/09/16 19:56:45;;;;;;;3.00;2.70;;;;;;;;;;10363455;28;20049;-80
2022/09/16 20:19:55;;;;;;;4.00;1.80;;;;;;;;;;10259526;28;20043;-78
2022/09/16 20:48:53;;;;;;;1.50;1.23;;;;;;;;;;10215362;28;20039;-81
2022/09/16 20:54:22;;;;;;;4.03;3.20;;;;;;;;;;10270654;28;20435;-80
2022/09/16 21:00:33;;;;;;;1.33;1.17;;;;;;;;;;10275786;28;20153;-80
2022/09/16 21:06:38;;;;;;;;;;;;;;;;;;;;;
2022/09/16 21:11:57;;;;;;;1.63;1.00;;;;;;;;;;10298906;23;20062;-82
2022/09/16 21:55:00;;;;;;;;;;;;;;;;;;;;;
2022/09/16 23:01:44;;;;;;;7.80;5.93;;;;;;;;;;10729748;23;20055;-86
